createdAt,value
2024-04-22T00:01:27.762Z,15.32
2024-04-22T00:03:55.202Z,15.43
2024-04-22T00:06:22.837Z,15.07
2024-04-22T00:08:50.185Z,14.93
2024-04-22T00:11:17.526Z,14.07
2024-04-22T00:13:44.922Z,13.95
2024-04-22T00:16:12.266Z,13.95
2024-04-22T00:18:39.576Z,13.38
2024-04-22T00:21:06.903Z,13.48
2024-04-22T00:23:34.241Z,12.52
2024-04-22T00:26:02.113Z,13.98
2024-04-22T00:28:29.575Z,12.60
2024-04-22T00:30:56.951Z,12.35
2024-04-22T00:33:24.324Z,11.27
2024-04-22T00:35:59.009Z,11.85
2024-04-22T00:38:29.606Z,12.05
2024-04-22T00:40:57.483Z,12.38
2024-04-22T00:43:24.898Z,11.93
2024-04-22T00:45:52.850Z,12.00
2024-04-22T00:48:28.239Z,11.63
2024-04-22T00:50:56.350Z,11.88
2024-04-22T00:53:24.032Z,11.45
2024-04-22T00:55:51.609Z,11.82
2024-04-22T00:58:19.556Z,11.25
2024-04-22T01:00:48.007Z,11.43
2024-04-22T01:03:16.676Z,11.13
2024-04-22T01:05:44.126Z,11.07
2024-04-22T01:08:11.435Z,10.45
2024-04-22T01:10:38.845Z,10.32
2024-04-22T01:13:06.317Z,10.60
2024-04-22T01:15:33.700Z,10.63
2024-04-22T01:18:01.130Z,10.43
2024-04-22T01:20:28.525Z,10.10
2024-04-22T01:22:55.839Z,10.57
2024-04-22T01:25:23.782Z,10.55
2024-04-22T01:27:51.356Z,10.43
2024-04-22T01:30:18.660Z,9.65
2024-04-22T01:32:46.170Z,8.90
2024-04-22T01:35:13.668Z,9.57
2024-04-22T01:37:41.093Z,9.95
2024-04-22T01:40:09.840Z,9.05
2024-04-22T01:42:37.218Z,10.07
2024-04-22T01:45:04.727Z,8.98
2024-04-22T01:47:32.069Z,9.43
2024-04-22T01:49:59.415Z,8.60
2024-04-22T01:52:26.895Z,8.32
2024-04-22T01:54:54.215Z,8.00
2024-04-22T01:57:21.626Z,8.35
2024-04-22T01:59:49.690Z,8.70
2024-04-22T02:02:17.075Z,8.13
2024-04-22T02:04:44.417Z,7.97
2024-04-22T02:07:11.772Z,7.68
2024-04-22T02:09:39.152Z,7.55
2024-04-22T02:12:06.630Z,7.68
2024-04-22T02:14:34.057Z,8.10
2024-04-22T02:17:01.514Z,7.45
2024-04-22T02:19:28.875Z,7.45
2024-04-22T02:21:56.289Z,7.75
2024-04-22T02:24:23.889Z,8.18
2024-04-22T02:26:51.238Z,7.68
2024-04-22T02:29:18.525Z,6.80
2024-04-22T02:31:45.918Z,7.03
2024-04-22T02:34:13.237Z,7.13
2024-04-22T02:36:40.574Z,7.28
2024-04-22T02:39:07.905Z,7.30
2024-04-22T02:41:35.254Z,7.38
2024-04-22T02:44:02.583Z,7.53
2024-04-22T02:46:30.030Z,6.47
2024-04-22T02:48:57.603Z,6.28
2024-04-22T02:51:27.503Z,6.82
2024-04-22T02:53:54.787Z,6.72
2024-04-22T02:56:22.096Z,6.50
2024-04-22T02:58:49.545Z,6.30
2024-04-22T03:01:17.004Z,7.10
2024-04-22T03:03:44.373Z,6.20
2024-04-22T03:06:11.724Z,6.53
2024-04-22T03:08:39.491Z,5.95
2024-04-22T03:11:06.903Z,7.15
2024-04-22T03:13:34.300Z,5.88
2024-04-22T03:16:01.716Z,5.40
2024-04-22T03:18:29.102Z,6.60
2024-04-22T03:20:56.419Z,6.05
2024-04-22T03:23:23.753Z,6.45
2024-04-22T03:25:51.057Z,6.50
2024-04-22T03:28:18.653Z,6.00
2024-04-22T03:30:46.257Z,6.07
2024-04-22T03:33:13.664Z,5.90
2024-04-22T03:35:40.993Z,6.40
2024-04-22T03:38:08.310Z,6.40
2024-04-22T03:40:35.756Z,5.70
2024-04-22T03:43:03.062Z,5.93
2024-04-22T03:45:30.499Z,5.50
2024-04-22T03:48:16.906Z,5.53
2024-04-22T03:50:44.218Z,5.63
2024-04-22T03:53:11.522Z,5.55
2024-04-22T03:55:39.545Z,5.25
2024-04-22T03:58:06.943Z,5.45
2024-04-22T04:00:34.356Z,5.75
2024-04-22T04:03:01.755Z,5.57
2024-04-22T04:05:29.112Z,5.38
2024-04-22T04:07:56.522Z,5.13
2024-04-22T04:10:24.934Z,5.13
2024-04-22T04:12:52.324Z,5.30
2024-04-22T04:15:19.658Z,5.82
2024-04-22T04:17:47.123Z,5.82
2024-04-22T04:20:14.592Z,6.15
2024-04-22T04:22:41.959Z,6.45
2024-04-22T04:25:09.429Z,6.32
2024-04-22T04:27:36.784Z,6.82
2024-04-22T04:30:04.726Z,6.07
2024-04-22T04:32:32.763Z,7.05
2024-04-22T04:35:00.405Z,5.97
2024-04-22T04:37:27.885Z,6.63
2024-04-22T04:39:55.210Z,6.60
2024-04-22T04:42:22.514Z,5.97
2024-04-22T04:44:49.882Z,6.25
2024-04-22T04:47:17.220Z,6.10
2024-04-22T04:49:44.573Z,5.82
2024-04-22T04:52:12.194Z,6.05
2024-04-22T04:54:39.947Z,6.05
2024-04-22T04:57:07.344Z,6.00
2024-04-22T04:59:34.708Z,5.60
2024-04-22T05:02:02.248Z,5.75
2024-04-22T05:04:29.747Z,5.78
2024-04-22T05:06:57.286Z,5.60
2024-04-22T05:09:24.603Z,6.10
2024-04-22T05:11:52.127Z,5.53
2024-04-22T05:14:19.453Z,5.93
2024-04-22T05:16:46.883Z,4.97
2024-04-22T05:19:14.233Z,5.22
2024-04-22T05:21:41.623Z,5.57
2024-04-22T05:24:12.666Z,5.15
2024-04-22T05:26:40.057Z,5.00
2024-04-22T05:29:07.471Z,5.32
2024-04-22T05:31:34.947Z,5.55
2024-04-22T05:34:20.922Z,5.80
2024-04-22T05:36:48.264Z,4.95
2024-04-22T05:39:15.583Z,5.22
2024-04-22T05:41:43.235Z,5.47
2024-04-22T05:44:10.576Z,6.00
2024-04-22T05:46:38.223Z,5.40
2024-04-22T05:49:05.647Z,5.60
2024-04-22T05:51:32.961Z,6.35
2024-04-22T05:54:00.377Z,5.78
2024-04-22T05:56:27.696Z,6.07
2024-04-22T05:58:55.129Z,6.28
2024-04-22T06:01:22.557Z,6.13
2024-04-22T06:03:50.053Z,6.22
2024-04-22T06:06:17.564Z,6.35
2024-04-22T06:08:44.946Z,6.40
2024-04-22T06:11:12.383Z,6.47
2024-04-22T06:13:39.760Z,6.60
2024-04-22T06:16:07.630Z,6.93
2024-04-22T06:18:35.016Z,6.45
2024-04-22T06:21:02.408Z,6.25
2024-04-22T06:23:29.778Z,6.68
2024-04-22T06:26:07.081Z,6.50
2024-04-22T06:28:34.798Z,5.97
2024-04-22T06:31:02.222Z,5.90
2024-04-22T06:33:30.131Z,6.28
2024-04-22T06:35:57.934Z,6.15
2024-04-22T06:38:26.628Z,6.72
2024-04-22T06:40:54.070Z,6.55
2024-04-22T06:43:21.563Z,6.75
2024-04-22T06:45:48.966Z,6.50
2024-04-22T06:48:16.301Z,6.43
2024-04-22T06:50:46.822Z,6.68
2024-04-22T06:53:14.153Z,6.25
2024-04-22T06:55:43.138Z,6.38
2024-04-22T06:58:10.516Z,6.75
2024-04-22T07:00:37.910Z,6.78
2024-04-22T07:03:05.468Z,6.25
2024-04-22T07:05:32.861Z,6.03
2024-04-22T07:08:00.179Z,6.22
2024-04-22T07:10:28.483Z,5.75
2024-04-22T07:12:55.997Z,6.65
2024-04-22T07:15:23.351Z,5.75
2024-04-22T07:17:50.823Z,6.82
2024-04-22T07:20:18.182Z,6.00
2024-04-22T07:22:45.680Z,5.82
2024-04-22T07:25:13.117Z,5.55
2024-04-22T07:27:40.567Z,5.82
2024-04-22T07:30:08.439Z,5.38
2024-04-22T07:32:36.292Z,5.53
2024-04-22T07:35:03.899Z,6.78
2024-04-22T07:37:44.858Z,6.57
2024-04-22T07:40:19.878Z,5.57
2024-04-22T07:42:48.309Z,5.95
2024-04-22T07:45:17.973Z,5.60
2024-04-22T07:47:46.383Z,6.20
2024-04-22T07:50:14.014Z,6.35
2024-04-22T07:52:41.824Z,5.78
2024-04-22T07:55:12.152Z,6.28
2024-04-22T07:57:43.580Z,5.90
2024-04-22T08:00:12.904Z,5.75
2024-04-22T08:02:40.580Z,6.03
2024-04-22T08:05:08.480Z,5.65
2024-04-22T08:07:36.185Z,6.18
2024-04-22T08:10:03.541Z,6.03
2024-04-22T08:12:31.251Z,6.00
2024-04-22T08:14:58.559Z,6.15
2024-04-22T08:17:26.165Z,5.93
2024-04-22T08:19:54.898Z,5.78
2024-04-22T08:22:23.922Z,6.05
2024-04-22T08:24:52.360Z,6.13
2024-04-22T08:27:19.666Z,5.50
2024-04-22T08:29:46.990Z,5.20
2024-04-22T08:32:18.272Z,5.13
2024-04-22T08:34:45.687Z,5.78
2024-04-22T08:37:13.042Z,6.32
2024-04-22T08:39:40.519Z,5.63
2024-04-22T08:42:19.823Z,6.25
2024-04-22T08:44:47.417Z,5.70
2024-04-22T08:47:14.797Z,5.50
2024-04-22T08:49:42.158Z,5.40
2024-04-22T08:52:10.141Z,5.40
2024-04-22T08:54:37.477Z,5.40
2024-04-22T08:57:06.068Z,5.75
2024-04-22T08:59:39.809Z,5.15
2024-04-22T09:02:08.851Z,5.38
2024-04-22T09:04:36.714Z,5.55
2024-04-22T09:07:06.633Z,5.57
2024-04-22T09:09:45.218Z,5.90
2024-04-22T09:12:22.048Z,5.70
2024-04-22T09:14:59.561Z,6.03
2024-04-22T09:17:27.483Z,5.88
2024-04-22T09:19:56.034Z,5.43
2024-04-22T09:22:23.478Z,5.65
2024-04-22T09:24:50.839Z,5.43
2024-04-22T09:27:18.323Z,4.88
2024-04-22T09:29:45.909Z,5.43
2024-04-22T09:32:14.629Z,5.65
2024-04-22T09:34:42.865Z,5.70
2024-04-22T09:37:10.682Z,4.90
2024-04-22T09:39:39.339Z,4.88
2024-04-22T09:42:06.915Z,5.53
2024-04-22T09:44:34.897Z,5.13
2024-04-22T09:47:02.566Z,5.40
2024-04-22T09:49:31.696Z,5.00
2024-04-22T09:52:00.658Z,5.45
2024-04-22T09:54:28.065Z,5.10
2024-04-22T09:56:55.781Z,5.20
2024-04-22T09:59:23.427Z,5.43
2024-04-22T10:01:51.106Z,5.40
2024-04-22T10:04:18.908Z,5.22
2024-04-22T10:06:47.364Z,5.50
2024-04-22T10:09:18.538Z,4.90
2024-04-22T10:11:46.245Z,5.90
2024-04-22T10:14:18.397Z,5.38
2024-04-22T10:16:57.622Z,5.38
2024-04-22T10:19:25.585Z,5.40
2024-04-22T10:21:53.622Z,5.15
2024-04-22T10:24:31.309Z,4.97
2024-04-22T10:27:05.519Z,5.07
2024-04-22T10:29:38.672Z,5.43
2024-04-22T10:32:06.697Z,5.38
2024-04-22T10:34:34.116Z,5.30
2024-04-22T10:37:03.722Z,4.80
2024-04-22T10:39:31.240Z,5.80
2024-04-22T10:41:58.640Z,5.60
2024-04-22T10:44:26.377Z,4.78
2024-04-22T10:46:53.771Z,5.35
2024-04-22T10:49:21.439Z,5.20
2024-04-22T10:51:50.762Z,5.55
2024-04-22T10:54:18.251Z,8.00
2024-04-22T10:56:45.714Z,9.88
2024-04-22T10:59:13.872Z,17.92
2024-04-22T11:01:44.513Z,25.02
2024-04-22T11:04:12.903Z,24.30
2024-04-22T11:06:41.336Z,19.25
2024-04-22T11:09:12.199Z,18.35
2024-04-22T11:11:39.770Z,18.88
2024-04-22T11:14:07.850Z,16.83
2024-04-22T11:16:35.561Z,17.38
2024-04-22T11:19:06.680Z,15.80
2024-04-22T11:21:35.744Z,14.65
2024-04-22T11:24:03.570Z,14.10
2024-04-22T11:26:33.299Z,13.25
2024-04-22T11:29:02.877Z,13.45
2024-04-22T11:31:34.707Z,13.15
2024-04-22T11:34:03.528Z,12.43
2024-04-22T11:36:36.075Z,12.00
2024-04-22T11:39:13.106Z,10.60
2024-04-22T11:41:40.476Z,11.32
2024-04-22T11:44:07.879Z,12.48
2024-04-22T11:46:35.408Z,10.48
2024-04-22T11:49:02.841Z,10.73
2024-04-22T11:51:30.287Z,11.90
2024-04-22T11:53:57.645Z,11.23
2024-04-22T11:56:31.265Z,10.60
2024-04-22T11:59:01.660Z,10.82
2024-04-22T12:01:29.124Z,10.45
2024-04-22T12:03:56.520Z,11.07
2024-04-22T12:06:24.126Z,9.88
2024-04-22T12:08:51.488Z,11.25
2024-04-22T12:11:18.834Z,10.05
2024-04-22T12:13:46.408Z,10.10
2024-04-22T12:16:14.019Z,9.65
2024-04-22T12:18:41.451Z,9.20
2024-04-22T12:21:09.391Z,9.65
2024-04-22T12:23:36.756Z,9.57
2024-04-22T12:26:04.271Z,9.48
2024-04-22T12:28:31.754Z,9.35
2024-04-22T12:30:59.207Z,9.02
2024-04-22T12:33:27.319Z,8.63
2024-04-22T12:35:54.703Z,9.15
2024-04-22T12:38:22.116Z,8.73
2024-04-22T12:40:50.219Z,9.25
2024-04-22T12:43:17.738Z,8.30
2024-04-22T12:45:45.091Z,8.55
2024-04-22T12:48:31.597Z,8.93
2024-04-22T12:51:00.836Z,9.68
2024-04-22T12:53:29.022Z,8.65
2024-04-22T12:55:56.552Z,9.13
2024-04-22T12:58:24.131Z,8.82
2024-04-22T13:00:51.874Z,8.40
2024-04-22T13:03:19.464Z,8.63
2024-04-22T13:05:46.841Z,8.20
2024-04-22T13:08:14.153Z,8.88
2024-04-22T13:10:41.651Z,7.63
2024-04-22T13:13:09.012Z,7.60
2024-04-22T13:15:36.540Z,7.90
2024-04-22T13:18:04.118Z,8.30
2024-04-22T13:20:32.369Z,7.97
2024-04-22T13:22:59.813Z,8.52
2024-04-22T13:25:27.251Z,7.10
2024-04-22T13:27:56.062Z,7.78
2024-04-22T13:30:23.694Z,7.82
2024-04-22T13:32:52.526Z,8.68
2024-04-22T13:35:20.302Z,8.63
2024-04-22T13:37:47.847Z,8.30
2024-04-22T13:40:15.290Z,7.85
2024-04-22T13:42:46.397Z,8.23
2024-04-22T13:45:16.112Z,8.15
2024-04-22T13:47:43.592Z,7.90
2024-04-22T13:50:11.022Z,8.15
2024-04-22T13:52:43.318Z,7.70
2024-04-22T13:55:12.484Z,7.80
2024-04-22T13:57:40.434Z,7.15
2024-04-22T14:00:12.238Z,8.23
2024-04-22T14:02:41.942Z,7.88
2024-04-22T14:05:09.313Z,8.23
2024-04-22T14:07:36.891Z,8.15
2024-04-22T14:10:08.317Z,7.68
2024-04-22T14:12:36.661Z,8.45
2024-04-22T14:15:04.169Z,8.90
2024-04-22T14:17:34.447Z,8.07
2024-04-22T14:20:01.943Z,8.32
2024-04-22T14:22:29.381Z,8.00
2024-04-22T14:24:56.860Z,7.53
2024-04-22T14:27:24.295Z,7.25
2024-04-22T14:29:51.815Z,8.60
2024-04-22T14:32:24.691Z,7.70
2024-04-22T14:34:56.612Z,7.53
2024-04-22T14:37:24.526Z,7.07
2024-04-22T14:39:51.990Z,7.63
2024-04-22T14:42:19.373Z,7.63
2024-04-22T14:44:47.750Z,8.88
2024-04-22T14:47:16.262Z,8.38
2024-04-22T14:49:43.707Z,7.43
2024-04-22T14:52:11.034Z,7.68
2024-04-22T14:54:41.699Z,8.02
2024-04-22T14:57:09.088Z,6.93
2024-04-22T14:59:36.488Z,7.72
2024-04-22T15:02:04.462Z,6.65
2024-04-22T15:04:31.911Z,7.53
2024-04-22T15:06:59.316Z,5.75
2024-04-22T15:09:26.779Z,6.03
2024-04-22T15:11:54.207Z,6.30
2024-04-22T15:14:24.165Z,6.30
2024-04-22T15:16:52.936Z,6.75
2024-04-22T15:19:20.462Z,6.95
2024-04-22T15:21:47.832Z,6.70
2024-04-22T15:24:15.158Z,7.03
2024-04-22T15:26:42.465Z,6.07
2024-04-22T15:29:10.138Z,6.78
2024-04-22T15:31:37.504Z,6.55
2024-04-22T15:34:04.970Z,6.82
2024-04-22T15:36:32.330Z,7.25
2024-04-22T15:39:02.820Z,5.80
2024-04-22T15:41:31.005Z,7.00
2024-04-22T15:44:00.746Z,6.63
2024-04-22T15:46:28.116Z,7.03
2024-04-22T15:48:56.198Z,7.18
2024-04-22T15:51:24.448Z,7.15
2024-04-22T15:53:52.063Z,8.15
2024-04-22T15:56:19.438Z,5.78
2024-04-22T15:58:46.811Z,6.32
2024-04-22T16:01:14.236Z,6.75
2024-04-22T16:03:41.683Z,7.22
2024-04-22T16:06:09.027Z,7.60
2024-04-22T16:08:37.047Z,7.05
2024-04-22T16:11:04.870Z,6.90
2024-04-22T16:13:32.181Z,6.57
2024-04-22T16:16:00.434Z,7.10
2024-04-22T16:18:27.803Z,6.30
2024-04-22T16:21:01.376Z,6.63
2024-04-22T16:23:32.771Z,7.68
2024-04-22T16:26:00.862Z,7.50
2024-04-22T16:28:28.400Z,7.22
2024-04-22T16:30:55.756Z,7.72
2024-04-22T16:33:24.006Z,6.85
2024-04-22T16:35:51.377Z,7.00
2024-04-22T16:38:19.168Z,7.32
2024-04-22T16:40:46.678Z,7.68
2024-04-22T16:43:15.306Z,7.35
2024-04-22T16:45:42.912Z,8.25
2024-04-22T16:48:10.323Z,7.20
2024-04-22T16:50:37.686Z,7.63
2024-04-22T16:53:05.125Z,8.18
2024-04-22T16:55:32.526Z,7.32
2024-04-22T16:57:59.886Z,7.18
2024-04-22T17:00:27.226Z,6.35
2024-04-22T17:02:54.587Z,6.85
2024-04-22T17:05:21.925Z,6.93
2024-04-22T17:07:49.314Z,6.78
2024-04-22T17:10:19.040Z,5.72
2024-04-22T17:12:47.044Z,7.07
2024-04-22T17:15:14.817Z,6.95
2024-04-22T17:17:42.402Z,7.05
2024-04-22T17:20:10.016Z,7.75
2024-04-22T17:22:37.351Z,7.03
2024-04-22T17:25:04.824Z,6.78
2024-04-22T17:27:32.221Z,6.93
2024-04-22T17:29:59.534Z,6.72
2024-04-22T17:32:27.307Z,7.00
2024-04-22T17:34:54.818Z,6.32
2024-04-22T17:37:22.247Z,6.88
2024-04-22T17:39:49.652Z,6.82
2024-04-22T17:42:16.986Z,7.05
2024-04-22T17:44:49.059Z,6.60
2024-04-22T17:47:16.384Z,7.32
2024-04-22T17:49:43.792Z,6.13
2024-04-22T17:52:11.142Z,6.70
2024-04-22T17:54:38.470Z,8.07
2024-04-22T17:57:09.516Z,7.78
2024-04-22T17:59:36.865Z,8.77
2024-04-22T18:02:04.431Z,8.15
2024-04-22T18:04:31.924Z,8.48
2024-04-22T18:06:59.741Z,10.38
2024-04-22T18:09:29.829Z,43.47
2024-04-22T18:11:59.662Z,31.33
2024-04-22T18:14:27.436Z,19.85
2024-04-22T18:16:57.054Z,18.77
2024-04-22T18:19:24.466Z,16.25
2024-04-22T18:21:51.857Z,15.77
2024-04-22T18:24:19.198Z,12.82
2024-04-22T18:26:46.586Z,11.73
2024-04-22T18:29:13.911Z,11.02
2024-04-22T18:31:41.250Z,10.38
2024-04-22T18:34:08.580Z,9.40
2024-04-22T18:36:35.896Z,8.93
2024-04-22T18:39:03.547Z,8.40
2024-04-22T18:41:30.876Z,8.13
2024-04-22T18:43:59.987Z,7.75
2024-04-22T18:46:27.406Z,7.53
2024-04-22T18:48:54.746Z,6.80
2024-04-22T18:51:24.995Z,7.53
2024-04-22T18:53:52.903Z,7.35
2024-04-22T18:56:20.247Z,7.18
2024-04-22T18:58:47.599Z,7.10
2024-04-22T19:01:14.959Z,6.13
2024-04-22T19:03:42.417Z,6.55
2024-04-22T19:06:09.914Z,5.78
2024-04-22T19:08:37.254Z,6.93
2024-04-22T19:11:07.792Z,6.82
2024-04-22T19:13:36.073Z,5.90
2024-04-22T19:16:03.736Z,5.70
2024-04-22T19:18:31.163Z,5.70
2024-04-22T19:20:59.275Z,6.43
2024-04-22T19:23:26.787Z,6.53
2024-04-22T19:25:54.284Z,6.20
2024-04-22T19:28:22.894Z,5.95
2024-04-22T19:30:54.064Z,6.45
2024-04-22T19:33:22.320Z,7.13
2024-04-22T19:35:52.987Z,7.18
2024-04-22T19:38:20.431Z,6.50
2024-04-22T19:40:47.996Z,6.70
2024-04-22T19:43:15.374Z,6.60
2024-04-22T19:45:42.838Z,7.13
2024-04-22T19:48:10.273Z,12.40
2024-04-22T19:50:39.374Z,10.10
2024-04-22T19:53:07.231Z,8.50
2024-04-22T19:55:38.183Z,7.57
2024-04-22T19:58:07.339Z,7.55
2024-04-22T20:00:34.953Z,8.00
2024-04-22T20:03:02.579Z,7.65
2024-04-22T20:05:30.132Z,8.93
2024-04-22T20:08:03.090Z,7.72
2024-04-22T20:10:31.055Z,8.73
2024-04-22T20:13:03.748Z,8.07
2024-04-22T20:15:41.753Z,7.30
2024-04-22T20:18:15.324Z,8.93
2024-04-22T20:20:42.981Z,7.65
2024-04-22T20:23:12.544Z,7.30
2024-04-22T20:25:40.461Z,7.63
2024-04-22T20:28:08.310Z,7.45
2024-04-22T20:30:36.497Z,7.60
2024-04-22T20:33:04.441Z,7.80
2024-04-22T20:35:32.063Z,8.45
2024-04-22T20:37:59.450Z,8.00
2024-04-22T20:40:28.208Z,7.95
2024-04-22T20:42:57.240Z,8.18
2024-04-22T20:45:26.190Z,7.57
2024-04-22T20:47:57.122Z,7.50
2024-04-22T20:50:25.429Z,6.90
2024-04-22T20:52:55.043Z,8.57
2024-04-22T20:55:23.649Z,7.68
2024-04-22T20:57:51.207Z,8.43
2024-04-22T21:00:18.764Z,6.95
2024-04-22T21:02:46.305Z,7.07
2024-04-22T21:05:14.246Z,7.15
2024-04-22T21:07:41.660Z,6.88
2024-04-22T21:10:09.337Z,6.38
2024-04-22T21:12:37.052Z,7.25
2024-04-22T21:15:04.693Z,6.32
2024-04-22T21:17:32.262Z,7.35
2024-04-22T21:19:59.851Z,6.63
2024-04-22T21:22:27.875Z,6.65
2024-04-22T21:24:55.234Z,6.60
2024-04-22T21:27:22.520Z,6.82
2024-04-22T21:29:51.351Z,6.40
2024-04-22T21:32:18.737Z,6.30
2024-04-22T21:34:46.306Z,6.80
2024-04-22T21:37:16.836Z,6.25
2024-04-22T21:39:44.383Z,7.05
2024-04-22T21:42:11.722Z,6.03
2024-04-22T21:44:39.044Z,6.53
2024-04-22T21:47:06.474Z,6.38
2024-04-22T21:49:33.823Z,6.93
2024-04-22T21:52:01.163Z,6.50
2024-04-22T21:54:28.472Z,6.75
2024-04-22T21:56:55.732Z,6.53
2024-04-22T21:59:42.101Z,6.47
2024-04-22T22:02:28.178Z,6.82
2024-04-22T22:07:26.897Z,6.20
2024-04-22T22:09:55.274Z,6.25
2024-04-22T22:12:24.356Z,6.32
2024-04-22T22:14:52.779Z,5.93
2024-04-22T22:17:20.448Z,6.28
2024-04-22T22:19:48.588Z,6.75
2024-04-22T22:22:16.189Z,5.88
2024-04-22T22:24:44.905Z,7.32
2024-04-22T22:27:13.562Z,5.40
2024-04-22T22:29:41.082Z,6.38
2024-04-22T22:32:08.695Z,6.00
2024-04-22T22:34:36.236Z,5.50
2024-04-22T22:37:04.729Z,5.63
2024-04-22T22:39:32.355Z,6.07
2024-04-22T22:42:00.254Z,5.78
2024-04-22T22:44:28.005Z,5.72
2024-04-22T22:47:02.229Z,5.85
2024-04-22T22:49:29.694Z,6.70
2024-04-22T22:51:57.216Z,5.50
2024-04-22T22:54:24.511Z,5.45
2024-04-22T22:56:58.555Z,5.93
2024-04-22T22:59:25.975Z,5.68
2024-04-22T23:01:54.949Z,5.55
2024-04-22T23:04:22.430Z,5.43
2024-04-22T23:06:49.784Z,4.93
2024-04-22T23:09:17.135Z,5.32
2024-04-22T23:11:44.603Z,5.38
2024-04-22T23:14:11.996Z,5.40
2024-04-22T23:16:39.329Z,5.18
2024-04-22T23:19:06.721Z,5.57
2024-04-22T23:21:34.114Z,5.45
2024-04-22T23:24:01.484Z,5.07
2024-04-22T23:26:28.822Z,5.78
2024-04-22T23:28:56.278Z,5.10
2024-04-22T23:31:23.665Z,4.65
2024-04-22T23:33:51.152Z,5.28
2024-04-22T23:36:18.452Z,5.40
2024-04-22T23:38:45.738Z,5.50
2024-04-22T23:41:13.020Z,4.80
2024-04-22T23:43:41.423Z,5.25
2024-04-22T23:46:08.907Z,4.65
2024-04-22T23:48:36.294Z,5.13
2024-04-22T23:51:03.725Z,4.78
2024-04-22T23:53:30.994Z,4.93
2024-04-22T23:55:58.413Z,4.97
2024-04-22T23:58:25.803Z,4.65
